Time;durP1;ratioP1;P1;durP2;ratioP2;P2;SDS_P1;SDS_P2;PMS_P1;PMS_P2;Temp;Humidity;BMP_temperature;BMP_pressure;BME280_temperature;BME280_humidity;BME280_pressure;Samples;Min_cycle;Max_cycle;Signal;HPM_P1;HPM_P2
2022/03/10 00:00:55;;;;;;;6.07;1.08;;;;;;;11.37;100.00;99663.28;7332628;19;20059;-48
2022/03/10 00:10:19;;;;;;;0.38;0.32;;;;;;;11.32;100.00;99667.53;7350201;19;20065;-57
2022/03/10 00:12:55;;;;;;;0.65;0.43;;;;;;;11.36;100.00;99672.91;7392519;19;20035;-57
2022/03/10 00:15:27;;;;;;;3.03;0.38;;;;;;;11.37;100.00;99668.84;7394137;19;20041;-56
2022/03/10 00:17:54;;;;;;;2.17;1.17;;;;;;;11.51;100.00;99665.25;7393438;19;20022;-56
2022/03/10 00:20:21;;;;;;;3.53;1.13;;;;;;;11.56;100.00;99659.00;7398086;19;20022;-55
2022/03/10 00:22:48;;;;;;;1.75;1.13;;;;;;;11.48;100.00;99669.00;7390243;19;20022;-56
2022/03/10 00:25:17;;;;;;;13.57;1.25;;;;;;;11.48;100.00;99663.44;7392709;19;20046;-56
2022/03/10 00:27:43;;;;;;;1.27;1.17;;;;;;;11.48;100.00;99666.22;7392796;19;20463;-55
2022/03/10 00:30:10;;;;;;;1.98;0.93;;;;;;;11.45;100.00;99670.00;7394690;19;20014;-57
2022/03/10 00:32:47;;;;;;;0.90;0.57;;;;;;;11.48;100.00;99674.59;7393119;19;20019;-55
2022/03/10 00:35:24;;;;;;;1.25;0.98;;;;;;;11.42;100.00;99670.94;7395427;19;20002;-54
2022/03/10 00:37:50;;;;;;;2.15;0.40;;;;;;;11.41;100.00;99675.00;7394042;19;20011;-54
2022/03/10 00:40:16;;;;;;;3.78;1.05;;;;;;;11.35;100.00;99679.72;7394722;19;20123;-54
2022/03/10 00:42:43;;;;;;;0.40;0.40;;;;;;;11.40;100.00;99679.03;7395614;19;20029;-54
2022/03/10 00:45:10;;;;;;;0.40;0.40;;;;;;;11.37;100.00;99677.22;7394353;19;20035;-45
2022/03/10 00:47:36;;;;;;;1.08;0.75;;;;;;;11.43;100.00;99678.06;7392689;19;20014;-45
2022/03/10 00:50:03;;;;;;;0.28;0.22;;;;;;;11.48;100.00;99685.72;7391684;19;20006;-45
2022/03/10 00:52:29;;;;;;;1.98;0.93;;;;;;;11.49;100.00;99687.28;7393764;19;20014;-45
2022/03/10 00:54:54;;;;;;;2.92;0.47;;;;;;;11.47;100.00;99687.00;7395847;19;20462;-45
2022/03/10 00:57:20;;;;;;;7.72;0.60;;;;;;;11.51;100.00;99697.94;7397218;19;20006;-45
2022/03/10 00:59:46;;;;;;;1.52;0.95;;;;;;;11.52;100.00;99703.03;7396487;19;20460;-45
2022/03/10 01:02:11;;;;;;;0.30;0.30;;;;;;;11.56;100.00;99697.25;7396011;19;20374;-45
2022/03/10 01:04:37;;;;;;;1.15;1.05;;;;;;;11.50;100.00;99705.53;7396383;19;20010;-45
2022/03/10 01:07:03;;;;;;;0.40;0.35;;;;;;;11.47;100.00;99700.94;7396262;19;20029;-46
2022/03/10 01:09:28;;;;;;;0.95;0.73;;;;;;;11.43;100.00;99700.38;7395901;19;20010;-53
2022/03/10 01:11:54;;;;;;;3.00;1.23;;;;;;;11.30;100.00;99691.56;7399558;19;20398;-53
2022/03/10 01:14:20;;;;;;;0.75;0.57;;;;;;;11.27;100.00;99692.53;7396177;19;20011;-56
2022/03/10 01:16:46;;;;;;;4.85;1.38;;;;;;;11.25;100.00;99689.47;7395516;19;20039;-56
2022/03/10 01:19:11;;;;;;;4.90;0.57;;;;;;;11.17;100.00;99685.53;7394402;19;20006;-56
2022/03/10 01:21:37;;;;;;;3.83;0.68;;;;;;;11.03;100.00;99683.53;7398947;19;20018;-56
2022/03/10 01:24:03;;;;;;;1.42;0.68;;;;;;;10.98;100.00;99689.81;7394971;19;20015;-56
2022/03/10 01:26:28;;;;;;;1.33;0.85;;;;;;;10.96;100.00;99689.53;7395535;19;20013;-56
2022/03/10 01:28:54;;;;;;;4.60;1.17;;;;;;;10.95;100.00;99687.97;7395531;19;20018;-56
2022/03/10 01:31:19;;;;;;;3.20;1.23;;;;;;;10.97;100.00;99680.69;7397616;19;20475;-54
2022/03/10 01:33:46;;;;;;;0.30;0.28;;;;;;;11.09;100.00;99684.38;7397860;19;20355;-53
2022/03/10 01:36:12;;;;;;;1.65;1.02;;;;;;;11.19;100.00;99674.69;7395175;19;20018;-53
2022/03/10 01:38:39;;;;;;;0.52;0.47;;;;;;;11.19;100.00;99669.09;7394913;19;20015;-53
2022/03/10 01:41:08;;;;;;;0.75;0.75;;;;;;;11.27;100.00;99664.66;7397745;19;20087;-45
2022/03/10 01:43:57;;;;;;;3.53;0.73;;;;;;;11.33;100.00;99682.22;7394538;19;20459;-45
2022/03/10 01:46:24;;;;;;;1.20;0.77;;;;;;;11.31;100.00;99681.94;7395011;19;20494;-45
2022/03/10 01:48:49;;;;;;;1.08;0.55;;;;;;;11.36;100.00;99684.06;7392902;19;20014;-45
2022/03/10 01:51:15;;;;;;;0.20;0.20;;;;;;;11.32;100.00;99686.28;7396371;19;20041;-45
2022/03/10 01:53:42;;;;;;;0.60;0.20;;;;;;;11.35;100.00;99682.50;7391620;19;20011;-81
2022/03/10 01:56:10;;;;;;;10.95;1.13;;;;;;;11.35;100.00;99688.06;7388484;19;20019;-81
2022/03/10 01:58:37;;;;;;;1.00;0.77;;;;;;;11.38;100.00;99689.91;7391851;19;20014;-81
2022/03/10 02:01:02;;;;;;;0.75;0.60;;;;;;;11.42;100.00;99687.69;7390986;19;20026;-81
2022/03/10 02:03:28;;;;;;;1.25;0.43;;;;;;;11.51;100.00;99673.63;7393157;19;20014;-82
2022/03/10 02:05:54;;;;;;;0.50;0.50;;;;;;;11.54;100.00;99667.09;7390128;19;20024;-82
2022/03/10 02:11:05;;;;;;;1.30;0.55;;;;;;;11.38;100.00;99667.59;7393760;19;20014;-81
2022/03/10 02:13:30;;;;;;;0.93;0.45;;;;;;;11.34;100.00;99667.81;7390315;19;20018;-83
2022/03/10 02:18:40;;;;;;;1.58;0.93;;;;;;;11.48;100.00;99641.13;7391479;19;20021;-81
2022/03/10 02:21:05;;;;;;;0.50;0.50;;;;;;;11.58;100.00;99650.91;7394036;19;20058;-82
2022/03/10 02:23:31;;;;;;;1.75;0.75;;;;;;;11.64;100.00;99648.94;7389032;19;20476;-82
2022/03/10 02:26:00;;;;;;;1.50;1.00;;;;;;;11.69;100.00;99653.88;7389921;19;20014;-83
2022/03/10 02:28:27;;;;;;;6.53;0.88;;;;;;;11.71;100.00;99656.16;7390422;19;20485;-83
2022/03/10 02:30:53;;;;;;;0.75;0.63;;;;;;;11.67;100.00;99656.38;7391077;19;20350;-81
2022/03/10 02:33:19;;;;;;;0.43;0.43;;;;;;;11.67;100.00;99656.38;7393333;19;20285;-82
2022/03/10 02:35:45;;;;;;;1.95;0.65;;;;;;;11.76;100.00;99661.81;7390383;19;20347;-81
2022/03/10 02:38:20;;;;;;;4.40;0.40;;;;;;;11.81;100.00;99658.31;7388696;19;20021;-80
2022/03/10 02:40:47;;;;;;;0.70;0.32;;;;;;;11.87;100.00;99653.56;7392939;19;20010;-84
2022/03/10 02:43:13;;;;;;;2.47;0.93;;;;;;;11.88;100.00;99651.56;7390434;19;20022;-82
2022/03/10 02:45:39;;;;;;;1.02;0.68;;;;;;;11.88;100.00;99635.59;7389749;19;20029;-82
2022/03/10 02:48:05;;;;;;;0.38;0.32;;;;;;;11.81;100.00;99636.00;7390434;19;20010;-83
2022/03/10 02:50:31;;;;;;;0.95;0.43;;;;;;;11.67;100.00;99636.84;7390482;19;20019;-84
2022/03/10 02:52:56;;;;;;;0.60;0.60;;;;;;;11.54;100.00;99641.97;7389204;19;20022;-82
2022/03/10 02:55:22;;;;;;;4.38;0.73;;;;;;;11.42;100.00;99638.28;7388275;19;20019;-83
2022/03/10 02:57:48;;;;;;;0.22;0.22;;;;;;;11.22;100.00;99645.81;7391556;19;20030;-83
2022/03/10 03:00:15;;;;;;;0.85;0.85;;;;;;;11.03;100.00;99650.09;7389772;19;20016;-84
2022/03/10 03:02:41;;;;;;;2.25;0.70;;;;;;;10.90;100.00;99635.72;7392241;19;20349;-86
2022/03/10 03:05:09;;;;;;;0.57;0.57;;;;;;;10.91;100.00;99642.84;7390363;19;20014;-85
2022/03/10 03:07:35;;;;;;;0.85;0.70;;;;;;;10.97;100.00;99640.88;7390157;19;20042;-85
2022/03/10 03:10:01;;;;;;;1.88;0.90;;;;;;;10.92;100.00;99644.34;7393677;19;20024;-85
2022/03/10 03:12:27;;;;;;;1.40;0.57;;;;;;;10.89;100.00;99639.75;7393195;19;20019;-85
2022/03/10 03:14:53;;;;;;;0.73;0.73;;;;;;;10.91;100.00;99640.81;7396001;19;20025;-85
2022/03/10 03:17:19;;;;;;;1.23;0.68;;;;;;;11.03;100.00;99645.31;7395511;19;20014;-85
2022/03/10 03:19:44;;;;;;;1.40;0.88;;;;;;;11.12;100.00;99642.41;7395571;19;20018;-85
2022/03/10 03:22:10;;;;;;;4.63;0.77;;;;;;;11.27;100.00;99636.78;7395849;19;20018;-85
2022/03/10 03:24:35;;;;;;;1.35;0.70;;;;;;;11.33;100.00;99637.63;7398265;19;20470;-84
2022/03/10 03:27:01;;;;;;;5.22;0.50;;;;;;;11.39;100.00;99635.69;7395467;19;20442;-85
2022/03/10 03:29:27;;;;;;;2.40;1.67;;;;;;;11.38;100.00;99642.50;7397575;19;20022;-85
2022/03/10 03:31:53;;;;;;;3.55;0.50;;;;;;;11.32;100.00;99645.22;7401003;19;20006;-85
2022/03/10 03:34:19;;;;;;;5.65;1.40;;;;;;;11.31;100.00;99648.50;7395532;19;20034;-85
2022/03/10 03:36:45;;;;;;;2.33;0.50;;;;;;;11.26;100.00;99646.41;7393927;19;20023;-85
2022/03/10 03:39:12;;;;;;;2.35;0.82;;;;;;;11.24;100.00;99643.34;7397020;19;20018;-85
2022/03/10 03:41:39;;;;;;;0.57;0.47;;;;;;;11.22;100.00;99645.81;7401054;19;20018;-85
2022/03/10 03:44:06;;;;;;;1.95;0.25;;;;;;;11.19;100.00;99644.78;7397233;19;20338;-84
2022/03/10 03:46:32;;;;;;;0.45;0.43;;;;;;;11.16;100.00;99648.53;7393327;19;20346;-84
2022/03/10 03:48:58;;;;;;;0.50;0.50;;;;;;;11.14;100.00;99651.03;7395665;19;20019;-84
2022/03/10 03:51:23;;;;;;;1.95;0.30;;;;;;;11.10;100.00;99649.72;7396899;19;20027;-84
2022/03/10 03:53:49;;;;;;;0.65;0.65;;;;;;;11.03;100.00;99664.03;7392118;19;20533;-89
2022/03/10 03:56:15;;;;;;;0.77;0.73;;;;;;;10.96;100.00;99667.22;7395181;19;20006;-78
2022/03/10 03:58:41;;;;;;;10.75;1.15;;;;;;;10.91;100.00;99665.13;7399825;19;20025;-85
2022/03/10 04:01:06;;;;;;;1.13;0.40;;;;;;;10.93;100.00;99668.19;7396998;19;20030;-86
2022/03/10 04:03:32;;;;;;;0.60;0.60;;;;;;;10.96;100.00;99678.38;7393145;19;20013;-86
2022/03/10 04:05:58;;;;;;;1.65;0.93;;;;;;;11.03;100.00;99675.19;7394415;19;20015;-86
2022/03/10 04:08:25;;;;;;;0.55;0.55;;;;;;;11.01;100.00;99675.66;7396339;19;20010;-83
2022/03/10 04:10:52;;;;;;;0.68;0.68;;;;;;;10.98;100.00;99675.88;7397806;19;20017;-86
2022/03/10 04:13:19;;;;;;;0.95;0.80;;;;;;;11.04;100.00;99673.94;7393773;19;20079;-83
2022/03/10 04:15:45;;;;;;;0.88;0.60;;;;;;;11.14;100.00;99675.34;7394607;19;20014;-84
2022/03/10 04:18:11;;;;;;;1.48;0.65;;;;;;;11.17;100.00;99679.97;7393563;19;20522;-87
2022/03/10 04:20:37;;;;;;;0.60;0.45;;;;;;;11.23;100.00;99675.25;7395625;19;20014;-83
2022/03/10 04:23:02;;;;;;;2.30;1.38;;;;;;;11.25;100.00;99672.72;7393197;19;20015;-79
2022/03/10 04:25:28;;;;;;;0.75;0.75;;;;;;;11.25;100.00;99669.94;7392125;19;20467;-79
2022/03/10 04:27:56;;;;;;;5.88;0.82;;;;;;;11.28;100.00;99666.94;7392266;19;20015;-80
2022/03/10 04:30:22;;;;;;;1.55;0.73;;;;;;;11.35;100.00;99668.56;7395298;19;20491;-82
2022/03/10 04:32:49;;;;;;;1.00;0.80;;;;;;;11.39;100.00;99666.38;7392815;19;20010;-81
2022/03/10 04:35:17;;;;;;;0.55;0.55;;;;;;;11.41;100.00;99669.44;7391705;19;20022;-83
2022/03/10 04:37:46;;;;;;;1.10;0.70;;;;;;;11.43;100.00;99672.50;7393134;19;20046;-86
2022/03/10 04:40:12;;;;;;;1.00;0.88;;;;;;;11.40;100.00;99684.63;7395241;19;20018;-87
2022/03/10 04:42:38;;;;;;;0.40;0.40;;;;;;;11.45;100.00;99678.34;7393016;19;20107;-89
2022/03/10 04:45:06;;;;;;;4.95;1.50;;;;;;;11.44;100.00;99677.59;7393877;19;20019;-86
2022/03/10 04:47:32;;;;;;;2.05;0.60;;;;;;;11.53;100.00;99675.91;7395272;19;20026;-83
2022/03/10 04:49:58;;;;;;;0.60;0.60;;;;;;;11.48;100.00;99671.78;7394679;19;20022;-89
2022/03/10 04:52:27;;;;;;;2.60;0.50;;;;;;;11.48;100.00;99663.44;7393819;19;20390;-89
2022/03/10 04:54:54;;;;;;;0.85;0.25;;;;;;;11.59;100.00;99652.41;7392756;19;20010;-86
2022/03/10 04:57:19;;;;;;;1.98;1.40;;;;;;;11.59;100.00;99658.00;7394080;19;20014;-86
2022/03/10 04:59:45;;;;;;;2.17;0.93;;;;;;;11.52;100.00;99655.63;7394123;19;20022;-89
2022/03/10 05:02:11;;;;;;;1.23;0.70;;;;;;;11.58;100.00;99656.47;7394392;19;20018;-88
2022/03/10 05:04:36;;;;;;;0.45;0.45;;;;;;;11.57;100.00;99654.94;7394105;19;20030;-90
2022/03/10 05:07:02;;;;;;;1.10;0.77;;;;;;;11.57;100.00;99660.50;7395533;19;20011;-88
2022/03/10 05:09:27;;;;;;;1.38;1.05;;;;;;;11.52;100.00;99650.03;7394179;19;20357;-87
2022/03/10 05:11:53;;;;;;;2.92;0.65;;;;;;;11.59;100.00;99646.84;7397480;19;20022;-87
2022/03/10 05:14:18;;;;;;;0.77;0.77;;;;;;;11.63;100.00;99646.66;7393137;19;20493;-87
2022/03/10 05:16:44;;;;;;;6.38;1.45;;;;;;;11.65;100.00;99644.13;7392683;19;20350;-88
2022/03/10 05:19:09;;;;;;;9.15;0.98;;;;;;;11.55;100.00;99635.13;7393419;19;20014;-88
2022/03/10 05:21:36;;;;;;;6.70;0.77;;;;;;;11.51;100.00;99633.81;7398484;19;20021;-88
2022/03/10 05:24:03;;;;;;;0.75;0.75;;;;;;;11.43;100.00;99633.47;7393670;19;20377;-87
2022/03/10 05:26:28;;;;;;;1.48;0.70;;;;;;;11.44;100.00;99641.34;7391214;19;20034;-87
2022/03/10 05:28:54;;;;;;;1.88;1.02;;;;;;;11.42;100.00;99629.91;7393017;19;20106;-90
2022/03/10 05:31:19;;;;;;;7.32;0.98;;;;;;;11.40;100.00;99635.19;7396352;19;20071;-89
2022/03/10 05:33:45;;;;;;;0.40;0.40;;;;;;;11.37;100.00;99624.22;7391515;19;20014;-90
2022/03/10 05:36:10;;;;;;;0.30;0.30;;;;;;;11.36;100.00;99611.56;7391449;19;20578;-89
2022/03/10 05:38:36;;;;;;;1.33;0.43;;;;;;;11.41;100.00;99624.81;7392909;19;20055;-90
2022/03/10 05:41:03;;;;;;;0.70;0.38;;;;;;;11.39;100.00;99618.97;7396386;19;20046;-90
2022/03/10 05:43:29;;;;;;;1.25;0.85;;;;;;;11.41;100.00;99614.41;7393551;19;20082;-89
2022/03/10 05:45:54;;;;;;;2.55;0.55;;;;;;;11.41;100.00;99625.56;7391324;19;20035;-90
2022/03/10 05:48:20;;;;;;;3.92;0.80;;;;;;;11.33;100.00;99623.69;7392894;19;20517;-90
2022/03/10 05:50:45;;;;;;;1.13;0.93;;;;;;;11.23;100.00;99636.22;7395188;19;20014;-90
2022/03/10 05:53:11;;;;;;;0.57;0.57;;;;;;;11.24;100.00;99632.19;7391955;19;20013;-90
2022/03/10 05:55:37;;;;;;;2.45;0.55;;;;;;;11.19;100.00;99635.66;7391767;19;20023;-88
2022/03/10 05:58:04;;;;;;;3.58;1.42;;;;;;;11.22;100.00;99629.09;7393614;19;20078;-87
2022/03/10 06:00:29;;;;;;;1.02;0.65;;;;;;;11.17;100.00;99627.00;7395201;19;20018;-88
2022/03/10 06:02:55;;;;;;;1.10;0.60;;;;;;;11.20;100.00;99624.00;7393880;19;20015;-88
2022/03/10 06:05:20;;;;;;;0.25;0.22;;;;;;;11.31;100.00;99620.59;7391392;19;20378;-88
2022/03/10 06:07:46;;;;;;;11.43;1.17;;;;;;;11.34;100.00;99626.00;7392715;19;20082;-88
2022/03/10 06:10:11;;;;;;;1.40;0.88;;;;;;;11.38;100.00;99625.78;7394159;19;20003;-88
2022/03/10 06:12:37;;;;;;;1.00;0.63;;;;;;;11.41;100.00;99619.25;7390363;19;20449;-88
2022/03/10 06:15:06;;;;;;;1.02;0.55;;;;;;;11.34;100.00;99614.84;7390737;19;20035;-88
2022/03/10 06:17:32;;;;;;;0.50;0.32;;;;;;;11.39;100.00;99616.91;7391956;19;20048;-88
2022/03/10 06:19:58;;;;;;;0.50;0.50;;;;;;;11.32;100.00;99622.16;7392255;19;20014;-87
2022/03/10 06:22:29;;;;;;;0.85;0.85;;;;;;;11.45;100.00;99614.22;7392874;19;20084;-88
2022/03/10 06:24:56;;;;;;;;;;;;;;;11.51;100.00;99622.66;7392362;19;20094;-87
2022/03/10 06:27:24;;;;;;;1.42;1.33;;;;;;;11.48;100.00;99613.22;7389079;19;19919;-88
2022/03/10 06:29:51;;;;;;;1.50;0.75;;;;;;;11.49;100.00;99620.34;7389867;19;20037;-88
2022/03/10 06:32:18;;;;;;;0.52;0.50;;;;;;;11.52;100.00;99619.38;7390926;19;20050;-88
2022/03/10 06:34:45;;;;;;;1.05;0.60;;;;;;;11.53;100.00;99608.97;7390035;19;20481;-87
2022/03/10 06:37:12;;;;;;;1.02;0.50;;;;;;;11.52;100.00;99619.38;7392869;19;20023;-86
2022/03/10 06:39:38;;;;;;;0.25;0.25;;;;;;;11.47;100.00;99617.28;7392670;19;20078;-86
2022/03/10 06:42:04;;;;;;;1.38;0.98;;;;;;;11.40;100.00;99623.28;7395274;19;20457;-84
2022/03/10 06:44:30;;;;;;;0.68;0.60;;;;;;;11.34;100.00;99623.22;7393596;19;20010;-83
2022/03/10 06:46:56;;;;;;;0.82;0.70;;;;;;;11.26;100.00;99624.09;7396849;19;20097;-83
2022/03/10 06:49:22;;;;;;;3.90;1.40;;;;;;;11.21;100.00;99622.00;7396901;19;20429;-83
2022/03/10 06:51:48;;;;;;;6.00;1.05;;;;;;;11.14;100.00;99627.97;7401383;19;20033;-83
2022/03/10 06:54:15;;;;;;;4.22;1.17;;;;;;;10.95;100.00;99630.25;7396690;19;20033;-83
2022/03/10 06:56:40;;;;;;;3.00;1.45;;;;;;;10.82;100.00;99631.78;7395889;19;20023;-82
2022/03/10 06:59:06;;;;;;;4.13;1.65;;;;;;;10.89;100.00;99629.41;7401731;19;20011;-83
2022/03/10 07:01:32;;;;;;;5.30;1.38;;;;;;;10.84;100.00;99629.28;7399468;19;20090;-83
2022/03/10 07:03:59;;;;;;;4.43;0.90;;;;;;;10.80;100.00;99625.94;7396728;19;20014;-82
2022/03/10 07:06:25;;;;;;;2.95;1.67;;;;;;;10.74;100.00;99630.66;7395802;19;20062;-83
2022/03/10 07:08:50;;;;;;;8.73;1.88;;;;;;;10.84;100.00;99626.50;7396282;19;20048;-83
2022/03/10 07:11:16;;;;;;;1.33;0.75;;;;;;;10.97;100.00;99633.31;7399316;19;20353;-83
2022/03/10 07:13:42;;;;;;;3.85;1.77;;;;;;;11.12;100.00;99636.06;7397343;19;20046;-82
2022/03/10 07:16:08;;;;;;;1.40;0.73;;;;;;;11.37;100.00;99640.97;7393190;19;20006;-82
2022/03/10 07:18:34;;;;;;;8.18;1.45;;;;;;;11.56;100.00;99630.31;7396638;19;20135;-83
2022/03/10 07:20:59;;;;;;;3.00;0.93;;;;;;;11.72;100.00;99633.34;7398921;19;20014;-83
2022/03/10 07:23:25;;;;;;;2.47;0.75;;;;;;;11.80;100.00;99640.03;7396253;19;20014;-83
2022/03/10 07:25:51;;;;;;;3.83;0.85;;;;;;;11.88;100.00;99645.97;7392757;19;20476;-83
2022/03/10 07:28:17;;;;;;;6.97;1.40;;;;;;;11.95;100.00;99639.97;7395981;19;20042;-83
2022/03/10 07:30:42;;;;;;;2.80;0.70;;;;;;;12.00;100.00;99633.66;7396960;19;20395;-83
2022/03/10 07:33:08;;;;;;;3.03;1.85;;;;;;;12.06;100.00;99640.09;7392998;19;20102;-83
2022/03/10 07:35:33;;;;;;;2.25;0.82;;;;;;;12.14;100.00;99636.38;7393803;19;20342;-83
2022/03/10 07:37:59;;;;;;;1.00;0.75;;;;;;;12.16;100.00;99647.81;7396499;19;20011;-83
2022/03/10 07:40:26;;;;;;;0.63;0.50;;;;;;;12.13;100.00;99646.00;7396304;19;20011;-83
2022/03/10 07:42:51;;;;;;;4.03;0.55;;;;;;;12.10;100.00;99647.00;7394374;19;20014;-83
2022/03/10 07:45:17;;;;;;;0.50;0.30;;;;;;;12.06;100.00;99640.84;7394531;19;20483;-82
2022/03/10 07:47:43;;;;;;;3.00;1.05;;;;;;;11.95;100.00;99649.09;7393846;19;20018;-83
2022/03/10 07:50:09;;;;;;;1.35;0.80;;;;;;;11.94;100.00;99655.94;7395824;19;20498;-83
2022/03/10 07:52:35;;;;;;;0.95;0.82;;;;;;;11.92;100.00;99658.47;7394176;19;20014;-82
2022/03/10 07:55:01;;;;;;;1.02;0.98;;;;;;;12.02;100.00;99667.44;7392841;19;20029;-83
2022/03/10 07:57:26;;;;;;;3.65;0.90;;;;;;;12.00;100.00;99670.72;7395087;19;20010;-83
2022/03/10 07:59:52;;;;;;;1.02;0.50;;;;;;;12.09;100.00;99665.00;7394513;19;20027;-83
2022/03/10 08:02:18;;;;;;;0.80;0.47;;;;;;;12.18;100.00;99664.84;7393931;19;20473;-82
2022/03/10 08:04:44;;;;;;;2.13;1.02;;;;;;;12.24;100.00;99664.13;7395322;19;20070;-83
2022/03/10 08:07:10;;;;;;;1.92;0.57;;;;;;;12.23;100.00;99663.38;7394857;19;20014;-84
2022/03/10 08:09:37;;;;;;;9.57;1.65;;;;;;;12.27;100.00;99660.34;7394595;19;20023;-83
2022/03/10 08:12:03;;;;;;;1.13;0.80;;;;;;;12.21;100.00;99662.34;7397638;19;20043;-83
2022/03/10 08:14:28;;;;;;;1.27;0.50;;;;;;;12.19;100.00;99657.25;7395673;19;20046;-82
2022/03/10 08:16:54;;;;;;;1.77;0.43;;;;;;;12.25;100.00;99658.06;7393463;19;20473;-83
2022/03/10 08:19:20;;;;;;;1.20;0.68;;;;;;;12.35;100.00;99661.44;7394454;19;20493;-83
2022/03/10 08:21:47;;;;;;;1.27;1.10;;;;;;;12.48;100.00;99656.25;7398487;19;20078;-84
2022/03/10 08:24:14;;;;;;;2.33;0.82;;;;;;;12.52;100.00;99654.78;7394848;19;20481;-83
2022/03/10 08:26:40;;;;;;;2.25;0.98;;;;;;;12.68;100.00;99656.19;7392017;19;20469;-84
2022/03/10 08:29:07;;;;;;;0.10;0.10;;;;;;;12.75;100.00;99645.34;7393522;19;20029;-84
2022/03/10 08:31:32;;;;;;;0.65;0.40;;;;;;;12.77;100.00;99648.41;7396062;19;20018;-84
2022/03/10 08:33:58;;;;;;;2.17;0.60;;;;;;;12.82;100.00;99649.72;7393249;19;20080;-83
2022/03/10 08:36:23;;;;;;;1.90;1.00;;;;;;;12.86;100.00;99642.63;7392564;19;20007;-84
2022/03/10 08:38:49;;;;;;;12.60;0.47;;;;;;;12.86;100.00;99644.66;7392147;19;20402;-85
2022/03/10 08:41:15;;;;;;;1.30;0.85;;;;;;;12.96;100.00;99637.63;7395127;19;20489;-83
2022/03/10 08:43:41;;;;;;;3.10;1.42;;;;;;;13.08;100.00;99644.84;7392813;19;20014;-83
2022/03/10 08:46:06;;;;;;;2.50;0.88;;;;;;;13.16;100.00;99637.53;7392900;19;20073;-82
2022/03/10 08:48:34;;;;;;;5.03;0.63;;;;;;;13.24;100.00;99635.81;7392460;19;20018;-82
2022/03/10 08:51:02;;;;;;;2.47;1.13;;;;;;;13.29;100.00;99635.09;7394075;19;20014;-85
2022/03/10 08:53:28;;;;;;;1.95;0.70;;;;;;;13.28;100.00;99636.34;7392451;19;20031;-85
2022/03/10 08:55:54;;;;;;;1.65;0.77;;;;;;;13.38;100.00;99623.66;7393472;19;20015;-85
2022/03/10 08:58:20;;;;;;;2.47;0.68;;;;;;;13.43;100.00;99628.53;7396749;19;20109;-84
2022/03/10 09:00:45;;;;;;;1.27;0.40;;;;;;;13.45;100.00;99626.00;7396378;19;20081;-85
2022/03/10 09:03:11;;;;;;;0.22;0.22;;;;;;;13.49;100.00;99634.19;7393397;19;20011;-91
2022/03/10 09:05:37;;;;;;;2.65;1.20;;;;;;;13.52;100.00;99628.34;7391808;19;20403;-81
2022/03/10 09:08:03;;;;;;;0.40;0.40;;;;;;;13.62;100.00;99623.31;7392817;19;20025;-84
2022/03/10 09:10:29;;;;;;;2.22;0.63;;;;;;;13.65;100.00;99623.06;7393036;19;20029;-84
2022/03/10 09:12:56;;;;;;;0.73;0.50;;;;;;;13.60;100.00;99618.19;7390310;19;20464;-81
2022/03/10 09:15:22;;;;;;;0.55;0.52;;;;;;;13.74;100.00;99621.31;7391582;19;20019;-83
2022/03/10 09:17:48;;;;;;;1.95;0.47;;;;;;;13.81;100.00;99615.22;7392293;19;20480;-84
2022/03/10 09:20:13;;;;;;;1.10;0.65;;;;;;;13.89;100.00;99621.88;7393954;19;20021;-84
2022/03/10 09:25:20;;;;;;;1.15;0.70;;;;;;;14.04;100.00;99617.59;7392676;19;20025;-88
2022/03/10 09:27:46;;;;;;;0.50;0.50;;;;;;;14.05;100.00;99616.34;7394556;19;20011;-90
2022/03/10 09:30:12;;;;;;;5.35;1.02;;;;;;;14.09;100.00;99616.09;7398181;19;20014;-87
2022/03/10 09:32:41;;;;;;;1.38;0.90;;;;;;;14.12;100.00;99615.81;7394519;19;20014;-90
2022/03/10 09:35:09;;;;;;;2.00;0.50;;;;;;;14.15;100.00;99611.25;7394694;19;20023;-85
2022/03/10 09:37:35;;;;;;;0.82;0.82;;;;;;;14.23;100.00;99623.47;7395725;19;20003;-89
2022/03/10 09:40:01;;;;;;;0.98;0.47;;;;;;;14.28;100.00;99608.75;7395929;19;20006;-86
2022/03/10 09:42:30;;;;;;;1.75;0.77;;;;;;;14.39;100.00;99603.19;7395171;19;20018;-84
2022/03/10 09:45:02;;;;;;;2.55;0.88;;;;;;;14.42;100.00;99607.78;7394458;19;20113;-86
2022/03/10 09:47:28;;;;;;;1.27;0.65;;;;;;;14.43;100.00;99604.47;7395885;19;20353;-86
2022/03/10 09:49:54;;;;;;;2.20;0.80;;;;;;;14.41;100.00;99621.00;7395714;19;20014;-88
2022/03/10 09:52:21;;;;;;;0.45;0.45;;;;;;;14.47;100.00;99618.22;7395311;19;20030;-87
2022/03/10 09:54:47;;;;;;;1.65;1.08;;;;;;;14.43;100.00;99609.28;7396393;19;20035;-87
2022/03/10 09:57:16;;;;;;;0.88;0.30;;;;;;;14.44;100.00;99603.16;7394128;19;20018;-87
2022/03/10 09:59:58;;;;;;;0.32;0.32;;;;;;;14.55;100.00;99610.06;7394868;19;20014;-89
2022/03/10 10:02:27;;;;;;;0.30;0.30;;;;;;;14.57;100.00;99604.72;7391571;19;20097;-78
2022/03/10 10:04:53;;;;;;;0.20;0.20;;;;;;;14.57;100.00;99607.53;7389456;19;20018;-79
2022/03/10 10:07:26;;;;;;;4.28;1.35;;;;;;;14.59;100.00;99616.97;7390125;19;20025;-78
2022/03/10 10:09:54;;;;;;;0.57;0.57;;;;;;;14.70;100.00;99619.78;7390111;19;20029;-77
2022/03/10 10:12:28;;;;;;;1.77;0.22;;;;;;;14.72;100.00;99617.22;7391492;19;20036;-80
2022/03/10 10:14:55;;;;;;;2.28;0.55;;;;;;;14.83;100.00;99608.03;7391040;19;20018;-81
2022/03/10 10:17:32;;;;;;;0.50;0.47;;;;;;;14.93;100.00;99612.09;7392377;19;20050;-79
2022/03/10 10:19:59;;;;;;;1.02;0.30;;;;;;;14.90;100.00;99608.28;7388558;19;20037;-79
2022/03/10 10:22:26;;;;;;;0.32;0.30;;;;;;;14.91;100.00;99609.81;7389297;19;20078;-79
2022/03/10 10:24:54;;;;;;;5.05;1.05;;;;;;;14.93;100.00;99607.25;7388980;19;20042;-79
2022/03/10 10:27:25;;;;;;;8.63;1.35;;;;;;;15.05;100.00;99603.16;7389859;19;20014;-79
2022/03/10 10:29:53;;;;;;;0.77;0.35;;;;;;;15.18;100.00;99611.81;7389368;19;20087;-79
2022/03/10 10:32:44;;;;;;;1.00;0.50;;;;;;;15.36;100.00;99604.09;7386817;19;20504;-79
2022/03/10 10:35:23;;;;;;;1.75;0.73;;;;;;;15.33;100.00;99622.75;7388490;19;20026;-80
2022/03/10 10:37:54;;;;;;;1.38;0.40;;;;;;;15.35;100.00;99603.38;7391176;19;20027;-80
2022/03/10 10:40:27;;;;;;;0.73;0.73;;;;;;;15.45;100.00;99606.66;7392362;19;20028;-79
2022/03/10 10:42:53;;;;;;;1.10;0.45;;;;;;;15.61;100.00;99614.28;7388562;19;20015;-80
2022/03/10 10:45:37;;;;;;;0.52;0.28;;;;;;;15.73;100.00;99615.75;7387902;19;20026;-80
2022/03/10 10:48:08;;;;;;;12.70;0.65;;;;;;;15.83;100.00;99619.81;7390097;19;20011;-81
2022/03/10 10:50:43;;;;;;;0.47;0.30;;;;;;;15.80;100.00;99618.03;7390366;19;20054;-80
2022/03/10 10:53:29;;;;;;;3.13;0.47;;;;;;;15.70;100.00;99619.59;7389630;19;20025;-80
2022/03/10 10:55:57;;;;;;;0.10;0.10;;;;;;;15.69;100.00;99607.63;7387368;19;20015;-79
2022/03/10 10:58:25;;;;;;;0.45;0.30;;;;;;;15.70;100.00;99614.72;7391024;19;20025;-79
2022/03/10 11:00:51;;;;;;;0.70;0.30;;;;;;;15.70;100.00;99616.81;7390156;19;20025;-79
2022/03/10 11:03:23;;;;;;;0.40;0.25;;;;;;;15.72;100.00;99622.66;7387661;19;20082;-81
2022/03/10 11:05:50;;;;;;;2.00;0.47;;;;;;;15.78;100.00;99629.00;7386907;19;20030;-81
2022/03/10 11:08:17;;;;;;;0.10;0.03;;;;;;;15.77;100.00;99616.25;7388282;19;20018;-81
2022/03/10 11:10:43;;;;;;;8.20;0.38;;;;;;;15.73;100.00;99610.13;7390090;19;20096;-81
2022/03/10 11:13:09;;;;;;;0.10;0.10;;;;;;;15.79;100.00;99608.06;7388329;19;20015;-80
2022/03/10 11:15:35;;;;;;;3.20;0.32;;;;;;;15.91;100.00;99599.09;7388707;19;20034;-80
2022/03/10 11:18:02;;;;;;;2.78;0.50;;;;;;;16.13;100.00;99603.81;7389232;19;20476;-80
2022/03/10 11:20:30;;;;;;;0.75;0.20;;;;;;;16.14;100.00;99598.94;7389860;19;20010;-81
2022/03/10 11:23:10;;;;;;;2.05;0.20;;;;;;;15.97;100.00;99601.84;7393247;19;20022;-80
2022/03/10 11:25:57;;;;;;;4.90;0.52;;;;;;;15.94;100.00;99597.25;7391087;19;20056;-80
2022/03/10 11:28:31;;;;;;;1.05;0.10;;;;;;;15.94;100.00;99598.03;7393249;19;20018;-80
2022/03/10 11:31:00;;;;;;;2.08;0.22;;;;;;;15.84;100.00;99587.63;7392506;19;20014;-80
2022/03/10 11:33:33;;;;;;;0.20;0.20;;;;;;;16.01;100.00;99591.09;7396405;19;20018;-80
2022/03/10 11:35:59;;;;;;;1.58;0.50;;;;;;;16.11;100.00;99589.53;7394614;19;20045;-79
2022/03/10 11:38:50;;;;;;;2.65;0.43;;;;;;;16.16;100.00;99585.13;7395152;19;20052;-79